Sterling, Kansas
Current Conditions -  °F | °C
As of 10:52 AM on Thursday 27 Nov 2014 (Local Time) from KHUT Reporting Station
Clear Clear  
Wind Chill: 28°   Ceiling: Unl
Heat Index: 35°   Visibility: 10mi
Dew Point: 19°   Wind: 9mph
Humidity: 52%   Direction: 170°S
Pressure: 30.48"   Gusts: NA
Location:  38.21°N, 98.21°W
Report Text: KHUT 271652Z 17008KT 10SM CLR 02/M07 A3048 RMK AO2 SLP328 T00171072
Loading
Personal Weather Stations






























Interactive Weather Map New forecast layout! Learn more

10-Day Weather Forecast

Advertisements
Track Severe Weather on mobile